sensor_id;sensor_type;location;lat;lon;timestamp;pressure;altitude;pressure_sealevel;temperature;humidity
23427;BME280;41148;45.420;10.952;2023-05-07T00:00:36;100699.59;;;18.77;68.29
23427;BME280;41148;45.420;10.952;2023-05-07T00:03:03;100699.22;;;18.69;69.83
23427;BME280;41148;45.420;10.952;2023-05-07T00:05:31;100704.06;;;18.62;70.82
23427;BME280;41148;45.420;10.952;2023-05-07T00:07:58;100707.44;;;18.51;71.98
23427;BME280;41148;45.420;10.952;2023-05-07T00:10:26;100706.28;;;18.55;72.03
23427;BME280;41148;45.420;10.952;2023-05-07T00:12:53;100701.75;;;18.56;72.16
23427;BME280;41148;45.420;10.952;2023-05-07T00:15:22;100698.66;;;18.48;74.07
23427;BME280;41148;45.420;10.952;2023-05-07T00:17:49;100704.34;;;18.43;74.50
23427;BME280;41148;45.420;10.952;2023-05-07T00:20:17;100692.00;;;18.39;75.23
23427;BME280;41148;45.420;10.952;2023-05-07T00:22:44;100698.53;;;18.35;75.93
23427;BME280;41148;45.420;10.952;2023-05-07T00:25:12;100696.97;;;18.31;76.75
23427;BME280;41148;45.420;10.952;2023-05-07T00:27:39;100694.56;;;18.26;77.42
23427;BME280;41148;45.420;10.952;2023-05-07T00:30:08;100697.97;;;18.14;78.38
23427;BME280;41148;45.420;10.952;2023-05-07T00:32:36;100707.22;;;18.10;78.54
23427;BME280;41148;45.420;10.952;2023-05-07T00:35:04;100699.72;;;18.15;78.50
23427;BME280;41148;45.420;10.952;2023-05-07T00:37:32;100705.50;;;18.23;78.17
23427;BME280;41148;45.420;10.952;2023-05-07T00:39:59;100699.34;;;18.21;78.23
23427;BME280;41148;45.420;10.952;2023-05-07T00:42:27;100706.34;;;18.10;79.04
23427;BME280;41148;45.420;10.952;2023-05-07T00:44:54;100697.06;;;17.99;78.96
23427;BME280;41148;45.420;10.952;2023-05-07T00:47:22;100699.84;;;17.82;80.16
23427;BME280;41148;45.420;10.952;2023-05-07T00:49:49;100696.47;;;17.79;80.66
23427;BME280;41148;45.420;10.952;2023-05-07T00:52:20;100698.31;;;17.78;80.26
23427;BME280;41148;45.420;10.952;2023-05-07T00:54:48;100703.25;;;17.86;80.17
23427;BME280;41148;45.420;10.952;2023-05-07T00:57:16;100689.69;;;17.87;79.80
23427;BME280;41148;45.420;10.952;2023-05-07T00:59:44;100697.88;;;17.86;80.24
23427;BME280;41148;45.420;10.952;2023-05-07T01:02:11;100692.28;;;17.89;79.75
23427;BME280;41148;45.420;10.952;2023-05-07T01:04:38;100703.94;;;17.89;79.85
23427;BME280;41148;45.420;10.952;2023-05-07T01:07:07;100706.34;;;17.94;79.88
23427;BME280;41148;45.420;10.952;2023-05-07T01:09:35;100698.66;;;17.88;80.06
23427;BME280;41148;45.420;10.952;2023-05-07T01:12:04;100699.50;;;17.88;79.78
23427;BME280;41148;45.420;10.952;2023-05-07T01:14:32;100697.78;;;17.87;79.88
23427;BME280;41148;45.420;10.952;2023-05-07T01:17:00;100690.03;;;17.81;80.17
23427;BME280;41148;45.420;10.952;2023-05-07T01:19:28;100681.72;;;17.86;79.96
23427;BME280;41148;45.420;10.952;2023-05-07T01:22:07;100691.59;;;17.85;79.90
23427;BME280;41148;45.420;10.952;2023-05-07T01:24:45;100691.00;;;17.80;80.44
23427;BME280;41148;45.420;10.952;2023-05-07T01:27:13;100686.03;;;17.88;80.05
23427;BME280;41148;45.420;10.952;2023-05-07T01:29:41;100693.25;;;17.88;79.98
23427;BME280;41148;45.420;10.952;2023-05-07T01:32:09;100679.34;;;17.80;80.48
23427;BME280;41148;45.420;10.952;2023-05-07T01:34:37;100679.59;;;17.75;80.45
23427;BME280;41148;45.420;10.952;2023-05-07T01:37:05;100677.97;;;17.72;80.88
23427;BME280;41148;45.420;10.952;2023-05-07T01:39:32;100676.38;;;17.68;80.88
23427;BME280;41148;45.420;10.952;2023-05-07T01:42:01;100684.22;;;17.73;80.84
23427;BME280;41148;45.420;10.952;2023-05-07T01:44:29;100681.53;;;17.73;80.78
23427;BME280;41148;45.420;10.952;2023-05-07T01:46:57;100683.53;;;17.69;81.09
23427;BME280;41148;45.420;10.952;2023-05-07T01:49:25;100679.50;;;17.61;81.53
23427;BME280;41148;45.420;10.952;2023-05-07T01:51:53;100678.22;;;17.52;81.71
23427;BME280;41148;45.420;10.952;2023-05-07T01:54:25;100689.94;;;17.51;82.33
23427;BME280;41148;45.420;10.952;2023-05-07T01:56:58;100683.16;;;17.44;82.41
23427;BME280;41148;45.420;10.952;2023-05-07T01:59:26;100689.59;;;17.41;82.91
23427;BME280;41148;45.420;10.952;2023-05-07T02:01:53;100691.41;;;17.41;83.01
23427;BME280;41148;45.420;10.952;2023-05-07T02:04:21;100680.38;;;17.45;82.90
23427;BME280;41148;45.420;10.952;2023-05-07T02:06:50;100683.88;;;17.48;82.57
23427;BME280;41148;45.420;10.952;2023-05-07T02:09:18;100679.50;;;17.45;82.73
23427;BME280;41148;45.420;10.952;2023-05-07T02:11:48;100690.47;;;17.58;82.03
23427;BME280;41148;45.420;10.952;2023-05-07T02:14:17;100682.44;;;17.56;82.25
23427;BME280;41148;45.420;10.952;2023-05-07T02:16:44;100688.41;;;17.47;82.72
23427;BME280;41148;45.420;10.952;2023-05-07T02:19:13;100690.28;;;17.45;82.97
23427;BME280;41148;45.420;10.952;2023-05-07T02:21:41;100693.84;;;17.45;82.66
23427;BME280;41148;45.420;10.952;2023-05-07T02:24:09;100686.22;;;17.38;83.22
23427;BME280;41148;45.420;10.952;2023-05-07T02:26:36;100692.72;;;17.34;83.42
23427;BME280;41148;45.420;10.952;2023-05-07T02:29:04;100680.88;;;17.36;83.25
23427;BME280;41148;45.420;10.952;2023-05-07T02:31:32;100685.34;;;17.37;83.38
23427;BME280;41148;45.420;10.952;2023-05-07T02:34:01;100682.72;;;17.36;83.12
23427;BME280;41148;45.420;10.952;2023-05-07T02:36:29;100677.28;;;17.37;83.48
23427;BME280;41148;45.420;10.952;2023-05-07T02:39:10;100676.31;;;17.38;83.20
23427;BME280;41148;45.420;10.952;2023-05-07T02:41:37;100685.41;;;17.36;83.49
23427;BME280;41148;45.420;10.952;2023-05-07T02:44:05;100688.19;;;17.34;83.55
23427;BME280;41148;45.420;10.952;2023-05-07T02:46:33;100695.13;;;17.23;84.20
23427;BME280;41148;45.420;10.952;2023-05-07T02:49:05;100674.78;;;17.17;85.04
23427;BME280;41148;45.420;10.952;2023-05-07T02:51:33;100686.09;;;17.24;84.77
23427;BME280;41148;45.420;10.952;2023-05-07T02:54:03;100676.38;;;17.37;84.07
23427;BME280;41148;45.420;10.952;2023-05-07T02:56:32;100689.06;;;17.35;83.64
23427;BME280;41148;45.420;10.952;2023-05-07T02:58:59;100684.44;;;17.37;83.93
23427;BME280;41148;45.420;10.952;2023-05-07T03:01:32;100686.09;;;17.24;84.82
23427;BME280;41148;45.420;10.952;2023-05-07T03:04:05;100696.19;;;17.20;85.25
23427;BME280;41148;45.420;10.952;2023-05-07T03:06:32;100681.63;;;17.07;86.10
23427;BME280;41148;45.420;10.952;2023-05-07T03:09:00;100688.09;;;17.20;85.56
23427;BME280;41148;45.420;10.952;2023-05-07T03:11:27;100695.38;;;17.02;86.41
23427;BME280;41148;45.420;10.952;2023-05-07T03:13:55;100697.88;;;17.05;86.66
23427;BME280;41148;45.420;10.952;2023-05-07T03:16:22;100689.81;;;17.05;86.37
23427;BME280;41148;45.420;10.952;2023-05-07T03:18:50;100684.78;;;16.99;86.60
23427;BME280;41148;45.420;10.952;2023-05-07T03:21:17;100691.72;;;17.03;86.72
23427;BME280;41148;45.420;10.952;2023-05-07T03:23:45;100693.53;;;17.03;86.90
23427;BME280;41148;45.420;10.952;2023-05-07T03:26:13;100691.41;;;17.09;86.50
23427;BME280;41148;45.420;10.952;2023-05-07T03:28:41;100682.69;;;17.04;86.54
23427;BME280;41148;45.420;10.952;2023-05-07T03:31:12;100684.69;;;17.01;86.73
23427;BME280;41148;45.420;10.952;2023-05-07T03:33:50;100681.50;;;17.10;86.48
23427;BME280;41148;45.420;10.952;2023-05-07T03:36:18;100671.59;;;17.10;86.51
23427;BME280;41148;45.420;10.952;2023-05-07T03:38:46;100685.50;;;17.19;85.87
23427;BME280;41148;45.420;10.952;2023-05-07T03:41:17;100678.28;;;17.19;85.52
23427;BME280;41148;45.420;10.952;2023-05-07T03:43:46;100680.69;;;17.08;86.42
23427;BME280;41148;45.420;10.952;2023-05-07T03:46:13;100690.84;;;17.03;86.62
23427;BME280;41148;45.420;10.952;2023-05-07T03:48:41;100682.78;;;17.03;86.60
23427;BME280;41148;45.420;10.952;2023-05-07T03:51:09;100689.03;;;17.03;87.23
23427;BME280;41148;45.420;10.952;2023-05-07T03:53:37;100680.84;;;17.05;87.47
23427;BME280;41148;45.420;10.952;2023-05-07T03:56:05;100674.78;;;17.17;86.62
23427;BME280;41148;45.420;10.952;2023-05-07T03:58:36;100679.41;;;17.15;86.93
23427;BME280;41148;45.420;10.952;2023-05-07T04:01:07;100678.03;;;17.24;86.34
23427;BME280;41148;45.420;10.952;2023-05-07T04:03:35;100688.00;;;17.22;86.40
23427;BME280;41148;45.420;10.952;2023-05-07T04:06:03;100680.25;;;17.15;86.48
23427;BME280;41148;45.420;10.952;2023-05-07T04:08:33;100685.22;;;17.23;86.31
23427;BME280;41148;45.420;10.952;2023-05-07T04:11:02;100686.91;;;17.41;84.69
23427;BME280;41148;45.420;10.952;2023-05-07T04:13:32;100689.16;;;17.33;85.07
23427;BME280;41148;45.420;10.952;2023-05-07T04:16:03;100688.69;;;17.25;84.86
23427;BME280;41148;45.420;10.952;2023-05-07T04:18:34;100690.53;;;17.25;84.86
23427;BME280;41148;45.420;10.952;2023-05-07T04:21:01;100684.69;;;17.01;85.38
23427;BME280;41148;45.420;10.952;2023-05-07T04:23:29;100699.78;;;17.03;85.82
23427;BME280;41148;45.420;10.952;2023-05-07T04:26:00;100690.84;;;17.03;84.55
23427;BME280;41148;45.420;10.952;2023-05-07T04:28:34;100713.25;;;17.03;83.47
23427;BME280;41148;45.420;10.952;2023-05-07T04:31:02;100699.13;;;16.82;83.15
23427;BME280;41148;45.420;10.952;2023-05-07T04:33:31;100700.19;;;16.80;82.74
23427;BME280;41148;45.420;10.952;2023-05-07T04:36:01;100691.91;;;16.66;83.56
23427;BME280;41148;45.420;10.952;2023-05-07T04:38:32;100700.94;;;16.65;83.09
23427;BME280;41148;45.420;10.952;2023-05-07T04:41:06;100707.09;;;16.67;83.29
23427;BME280;41148;45.420;10.952;2023-05-07T04:43:38;100720.56;;;16.84;82.25
23427;BME280;41148;45.420;10.952;2023-05-07T04:46:06;100709.78;;;16.67;82.30
23427;BME280;41148;45.420;10.952;2023-05-07T04:48:33;100716.38;;;16.78;82.69
23427;BME280;41148;45.420;10.952;2023-05-07T04:51:03;100706.56;;;16.77;82.91
23427;BME280;41148;45.420;10.952;2023-05-07T04:53:31;100706.47;;;16.79;83.02
23427;BME280;41148;45.420;10.952;2023-05-07T04:55:58;100729.34;;;16.87;82.66
23427;BME280;41148;45.420;10.952;2023-05-07T04:58:32;100724.59;;;16.93;82.59
23427;BME280;41148;45.420;10.952;2023-05-07T05:01:00;100726.25;;;16.95;82.85
23427;BME280;41148;45.420;10.952;2023-05-07T05:03:28;100724.19;;;17.00;82.57
23427;BME280;41148;45.420;10.952;2023-05-07T05:05:56;100710.06;;;17.12;81.50
23427;BME280;41148;45.420;10.952;2023-05-07T05:08:29;100726.47;;;17.24;81.68
23427;BME280;41148;45.420;10.952;2023-05-07T05:10:57;100719.91;;;17.29;81.09
23427;BME280;41148;45.420;10.952;2023-05-07T05:13:25;100730.78;;;17.28;81.55
23427;BME280;41148;45.420;10.952;2023-05-07T05:15:52;100749.06;;;17.37;81.43
23427;BME280;41148;45.420;10.952;2023-05-07T05:18:20;100735.78;;;17.34;81.32
23427;BME280;41148;45.420;10.952;2023-05-07T05:20:48;100747.97;;;17.41;81.23
23427;BME280;41148;45.420;10.952;2023-05-07T05:23:15;100755.72;;;17.63;80.34
23427;BME280;41148;45.420;10.952;2023-05-07T05:25:43;100755.19;;;17.56;79.33
23427;BME280;41148;45.420;10.952;2023-05-07T05:28:12;100761.28;;;17.60;80.27
23427;BME280;41148;45.420;10.952;2023-05-07T05:30:40;100749.53;;;17.45;80.79
23427;BME280;41148;45.420;10.952;2023-05-07T05:33:08;100756.84;;;17.59;80.67
23427;BME280;41148;45.420;10.952;2023-05-07T05:35:36;100763.56;;;17.67;79.96
23427;BME280;41148;45.420;10.952;2023-05-07T05:38:06;100758.72;;;17.74;79.76
23427;BME280;41148;45.420;10.952;2023-05-07T05:40:34;100762.34;;;18.05;76.35
23427;BME280;41148;45.420;10.952;2023-05-07T05:43:01;100755.41;;;18.16;75.98
23427;BME280;41148;45.420;10.952;2023-05-07T05:45:29;100752.59;;;18.18;76.45
23427;BME280;41148;45.420;10.952;2023-05-07T05:47:57;100753.13;;;18.09;76.05
23427;BME280;41148;45.420;10.952;2023-05-07T05:50:25;100743.66;;;18.17;75.40
23427;BME280;41148;45.420;10.952;2023-05-07T05:52:54;100760.25;;;18.25;74.31
23427;BME280;41148;45.420;10.952;2023-05-07T05:55:22;100748.59;;;18.25;74.33
23427;BME280;41148;45.420;10.952;2023-05-07T05:57:50;100760.34;;;18.24;74.30
23427;BME280;41148;45.420;10.952;2023-05-07T06:00:18;100757.97;;;18.34;73.93
23427;BME280;41148;45.420;10.952;2023-05-07T06:02:46;100759.00;;;18.31;74.55
23427;BME280;41148;45.420;10.952;2023-05-07T06:05:23;100755.75;;;18.40;73.66
23427;BME280;41148;45.420;10.952;2023-05-07T06:07:54;100752.91;;;18.43;73.09
23427;BME280;41148;45.420;10.952;2023-05-07T06:10:21;100762.63;;;18.46;73.32
23427;BME280;41148;45.420;10.952;2023-05-07T06:15:51;100760.91;;;18.45;74.47
23427;BME280;41148;45.420;10.952;2023-05-07T06:18:18;100759.97;;;18.60;73.71
23427;BME280;41148;45.420;10.952;2023-05-07T06:20:46;100759.19;;;18.58;73.45
23427;BME280;41148;45.420;10.952;2023-05-07T06:23:22;100763.06;;;18.54;74.41
23427;BME280;41148;45.420;10.952;2023-05-07T06:25:50;100765.66;;;18.55;74.07
23427;BME280;41148;45.420;10.952;2023-05-07T06:28:19;100764.22;;;18.64;73.99
23427;BME280;41148;45.420;10.952;2023-05-07T06:30:47;100762.19;;;18.83;72.81
23427;BME280;41148;45.420;10.952;2023-05-07T06:33:17;100755.72;;;18.86;73.21
23427;BME280;41148;45.420;10.952;2023-05-07T06:35:45;100769.31;;;18.84;73.25
23427;BME280;41148;45.420;10.952;2023-05-07T06:38:12;100770.28;;;18.98;72.71
23427;BME280;41148;45.420;10.952;2023-05-07T06:40:40;100762.59;;;19.06;72.79
23427;BME280;41148;45.420;10.952;2023-05-07T06:43:08;100759.69;;;19.09;72.88
23427;BME280;41148;45.420;10.952;2023-05-07T06:45:47;100778.28;;;18.99;73.29
23427;BME280;41148;45.420;10.952;2023-05-07T06:48:15;100781.59;;;19.04;71.95
23427;BME280;41148;45.420;10.952;2023-05-07T06:50:50;100762.19;;;18.98;73.07
23427;BME280;41148;45.420;10.952;2023-05-07T06:53:18;100773.28;;;19.07;74.00
23427;BME280;41148;45.420;10.952;2023-05-07T06:55:46;100772.25;;;19.24;73.33
23427;BME280;41148;45.420;10.952;2023-05-07T06:58:15;100773.31;;;19.36;71.21
23427;BME280;41148;45.420;10.952;2023-05-07T07:00:42;100763.16;;;19.39;71.34
23427;BME280;41148;45.420;10.952;2023-05-07T07:03:10;100759.31;;;19.43;71.71
23427;BME280;41148;45.420;10.952;2023-05-07T07:05:40;100769.25;;;19.43;71.46
23427;BME280;41148;45.420;10.952;2023-05-07T07:08:09;100766.09;;;19.51;72.07
23427;BME280;41148;45.420;10.952;2023-05-07T07:10:36;100770.50;;;19.52;71.81
23427;BME280;41148;45.420;10.952;2023-05-07T07:13:04;100769.28;;;19.57;71.98
23427;BME280;41148;45.420;10.952;2023-05-07T07:15:32;100765.88;;;19.68;72.17
23427;BME280;41148;45.420;10.952;2023-05-07T07:18:00;100775.75;;;19.69;72.35
23427;BME280;41148;45.420;10.952;2023-05-07T07:20:28;100768.19;;;19.88;71.87
23427;BME280;41148;45.420;10.952;2023-05-07T07:22:55;100768.34;;;19.99;71.93
23427;BME280;41148;45.420;10.952;2023-05-07T07:25:23;100764.06;;;20.10;72.31
23427;BME280;41148;45.420;10.952;2023-05-07T07:27:51;100749.44;;;20.12;72.34
23427;BME280;41148;45.420;10.952;2023-05-07T07:30:20;100759.16;;;20.29;71.52
23427;BME280;41148;45.420;10.952;2023-05-07T07:32:48;100746.16;;;20.34;69.42
23427;BME280;41148;45.420;10.952;2023-05-07T07:35:16;100745.63;;;20.29;69.55
23427;BME280;41148;45.420;10.952;2023-05-07T07:37:45;100760.31;;;20.25;70.01
23427;BME280;41148;45.420;10.952;2023-05-07T07:40:13;100757.06;;;20.20;68.51
23427;BME280;41148;45.420;10.952;2023-05-07T07:42:41;100742.44;;;20.22;67.93
23427;BME280;41148;45.420;10.952;2023-05-07T07:45:10;100756.91;;;20.09;69.32
23427;BME280;41148;45.420;10.952;2023-05-07T07:47:41;100755.50;;;20.16;70.00
23427;BME280;41148;45.420;10.952;2023-05-07T07:50:09;100748.72;;;20.23;69.44
23427;BME280;41148;45.420;10.952;2023-05-07T07:52:41;100746.41;;;20.17;69.76
23427;BME280;41148;45.420;10.952;2023-05-07T07:55:10;100761.97;;;20.27;70.77
23427;BME280;41148;45.420;10.952;2023-05-07T07:57:38;100764.97;;;20.23;71.75
23427;BME280;41148;45.420;10.952;2023-05-07T08:00:06;100775.28;;;20.30;70.25
23427;BME280;41148;45.420;10.952;2023-05-07T08:02:42;100769.75;;;20.32;70.38
23427;BME280;41148;45.420;10.952;2023-05-07T08:05:17;100769.47;;;20.37;70.54
23427;BME280;41148;45.420;10.952;2023-05-07T08:07:45;100776.97;;;20.46;69.29
23427;BME280;41148;45.420;10.952;2023-05-07T08:10:13;100766.06;;;20.33;68.29
23427;BME280;41148;45.420;10.952;2023-05-07T08:12:51;100780.06;;;20.40;68.99
23427;BME280;41148;45.420;10.952;2023-05-07T08:15:19;100766.75;;;20.37;69.47
23427;BME280;41148;45.420;10.952;2023-05-07T08:17:49;100774.94;;;20.49;68.39
23427;BME280;41148;45.420;10.952;2023-05-07T08:20:16;100767.47;;;20.53;67.89
23427;BME280;41148;45.420;10.952;2023-05-07T08:22:44;100775.47;;;20.54;68.02
23427;BME280;41148;45.420;10.952;2023-05-07T08:25:11;100785.03;;;20.73;67.23
23427;BME280;41148;45.420;10.952;2023-05-07T08:27:39;100789.81;;;20.82;65.51
23427;BME280;41148;45.420;10.952;2023-05-07T08:30:07;100783.09;;;20.75;65.16
23427;BME280;41148;45.420;10.952;2023-05-07T08:32:35;100787.34;;;20.79;65.20
23427;BME280;41148;45.420;10.952;2023-05-07T08:35:03;100782.38;;;20.85;64.94
23427;BME280;41148;45.420;10.952;2023-05-07T08:37:30;100790.50;;;20.98;65.35
23427;BME280;41148;45.420;10.952;2023-05-07T08:39:59;100781.53;;;21.10;63.70
23427;BME280;41148;45.420;10.952;2023-05-07T08:42:31;100777.53;;;21.29;63.68
23427;BME280;41148;45.420;10.952;2023-05-07T08:45:02;100787.22;;;21.33;63.75
23427;BME280;41148;45.420;10.952;2023-05-07T08:47:47;100788.72;;;21.37;63.94
23427;BME280;41148;45.420;10.952;2023-05-07T08:50:20;100783.47;;;21.59;63.50
23427;BME280;41148;45.420;10.952;2023-05-07T08:52:49;100773.28;;;21.63;63.45
23427;BME280;41148;45.420;10.952;2023-05-07T08:55:18;100782.81;;;21.68;60.97
23427;BME280;41148;45.420;10.952;2023-05-07T08:57:46;100773.88;;;21.79;61.30
23427;BME280;41148;45.420;10.952;2023-05-07T09:00:16;100784.97;;;22.00;60.46
23427;BME280;41148;45.420;10.952;2023-05-07T09:02:47;100777.38;;;22.05;61.67
23427;BME280;41148;45.420;10.952;2023-05-07T09:05:15;100776.00;;;22.12;60.97
23427;BME280;41148;45.420;10.952;2023-05-07T09:07:43;100772.16;;;22.15;59.97
23427;BME280;41148;45.420;10.952;2023-05-07T09:10:13;100776.97;;;22.35;58.03
23427;BME280;41148;45.420;10.952;2023-05-07T09:12:42;100772.63;;;22.33;58.51
23427;BME280;41148;45.420;10.952;2023-05-07T09:15:12;100769.22;;;22.18;59.71
23427;BME280;41148;45.420;10.952;2023-05-07T09:17:40;100770.88;;;22.08;60.13
23427;BME280;41148;45.420;10.952;2023-05-07T09:20:09;100771.97;;;22.29;58.87
23427;BME280;41148;45.420;10.952;2023-05-07T09:22:38;100774.00;;;22.38;59.79
23427;BME280;41148;45.420;10.952;2023-05-07T09:25:10;100778.53;;;22.50;58.51
23427;BME280;41148;45.420;10.952;2023-05-07T09:27:41;100773.25;;;22.60;58.43
23427;BME280;41148;45.420;10.952;2023-05-07T09:30:09;100766.56;;;22.53;57.78
23427;BME280;41148;45.420;10.952;2023-05-07T09:32:37;100772.22;;;22.50;58.81
23427;BME280;41148;45.420;10.952;2023-05-07T09:35:17;100775.53;;;22.42;58.98
23427;BME280;41148;45.420;10.952;2023-05-07T09:37:50;100772.81;;;22.42;58.57
23427;BME280;41148;45.420;10.952;2023-05-07T09:40:26;100772.97;;;22.28;59.45
23427;BME280;41148;45.420;10.952;2023-05-07T09:43:08;100765.47;;;22.32;59.02
23427;BME280;41148;45.420;10.952;2023-05-07T09:45:37;100758.09;;;22.34;59.37
23427;BME280;41148;45.420;10.952;2023-05-07T09:48:06;100765.41;;;22.44;58.52
23427;BME280;41148;45.420;10.952;2023-05-07T09:50:40;100763.31;;;22.48;56.92
23427;BME280;41148;45.420;10.952;2023-05-07T09:53:11;100772.38;;;22.60;56.94
23427;BME280;41148;45.420;10.952;2023-05-07T09:55:40;100771.75;;;22.56;57.18
23427;BME280;41148;45.420;10.952;2023-05-07T09:58:09;100771.38;;;22.49;57.99
23427;BME280;41148;45.420;10.952;2023-05-07T10:00:39;100767.50;;;22.41;57.39
23427;BME280;41148;45.420;10.952;2023-05-07T10:03:12;100770.00;;;22.55;57.63
23427;BME280;41148;45.420;10.952;2023-05-07T10:05:51;100764.50;;;22.68;57.91
23427;BME280;41148;45.420;10.952;2023-05-07T10:08:20;100763.88;;;22.64;57.36
23427;BME280;41148;45.420;10.952;2023-05-07T10:10:50;100763.03;;;22.75;57.16
23427;BME280;41148;45.420;10.952;2023-05-07T10:13:22;100762.44;;;22.82;58.08
23427;BME280;41148;45.420;10.952;2023-05-07T10:15:53;100752.75;;;22.91;55.98
23427;BME280;41148;45.420;10.952;2023-05-07T10:18:24;100752.28;;;22.97;55.55
23427;BME280;41148;45.420;10.952;2023-05-07T10:21:07;100748.31;;;22.90;56.79
23427;BME280;41148;45.420;10.952;2023-05-07T10:23:36;100752.16;;;22.99;56.82
23427;BME280;41148;45.420;10.952;2023-05-07T10:26:07;100745.47;;;22.92;56.15
23427;BME280;41148;45.420;10.952;2023-05-07T10:28:41;100738.31;;;23.13;55.07
23427;BME280;41148;45.420;10.952;2023-05-07T10:33:59;100736.97;;;23.07;57.01
23427;BME280;41148;45.420;10.952;2023-05-07T10:36:28;100742.56;;;23.17;57.22
23427;BME280;41148;45.420;10.952;2023-05-07T10:38:55;100738.06;;;23.16;56.87
23427;BME280;41148;45.420;10.952;2023-05-07T10:41:23;100737.84;;;23.30;56.59
23427;BME280;41148;45.420;10.952;2023-05-07T10:43:51;100740.22;;;23.46;54.96
23427;BME280;41148;45.420;10.952;2023-05-07T10:46:29;100740.69;;;23.51;54.83
23427;BME280;41148;45.420;10.952;2023-05-07T10:54:45;100732.06;;;23.68;54.10
23427;BME280;41148;45.420;10.952;2023-05-07T10:57:36;100731.53;;;23.86;53.64
23427;BME280;41148;45.420;10.952;2023-05-07T11:03:10;100725.97;;;23.87;54.61
23427;BME280;41148;45.420;10.952;2023-05-07T11:06:14;100721.16;;;23.80;54.40
23427;BME280;41148;45.420;10.952;2023-05-07T11:08:53;100720.25;;;23.90;54.09
23427;BME280;41148;45.420;10.952;2023-05-07T11:11:44;100711.84;;;23.82;52.52
23427;BME280;41148;45.420;10.952;2023-05-07T11:14:53;100714.56;;;23.82;54.56
23427;BME280;41148;45.420;10.952;2023-05-07T11:17:32;100706.03;;;23.87;54.40
23427;BME280;41148;45.420;10.952;2023-05-07T11:20:07;100709.13;;;23.93;53.91
23427;BME280;41148;45.420;10.952;2023-05-07T11:22:44;100699.63;;;23.88;53.54
23427;BME280;41148;45.420;10.952;2023-05-07T11:25:26;100697.16;;;23.85;53.05
23427;BME280;41148;45.420;10.952;2023-05-07T11:28:07;100695.44;;;23.84;52.64
23427;BME280;41148;45.420;10.952;2023-05-07T11:30:43;100701.38;;;23.44;52.59
23427;BME280;41148;45.420;10.952;2023-05-07T11:33:17;100692.25;;;23.56;53.30
23427;BME280;41148;45.420;10.952;2023-05-07T11:35:45;100700.13;;;23.70;52.97
23427;BME280;41148;45.420;10.952;2023-05-07T11:38:15;100690.75;;;23.75;53.31
23427;BME280;41148;45.420;10.952;2023-05-07T11:40:54;100682.78;;;23.83;51.34
23427;BME280;41148;45.420;10.952;2023-05-07T11:43:22;100681.69;;;23.85;51.36
23427;BME280;41148;45.420;10.952;2023-05-07T11:45:49;100696.75;;;24.21;50.27
23427;BME280;41148;45.420;10.952;2023-05-07T11:48:17;100694.94;;;24.11;50.59
23427;BME280;41148;45.420;10.952;2023-05-07T11:51:01;100698.94;;;24.07;51.55
23427;BME280;41148;45.420;10.952;2023-05-07T11:53:36;100690.41;;;24.00;52.04
23427;BME280;41148;45.420;10.952;2023-05-07T11:56:11;100691.63;;;24.07;50.79
23427;BME280;41148;45.420;10.952;2023-05-07T11:58:40;100688.78;;;24.09;51.22
23427;BME280;41148;45.420;10.952;2023-05-07T12:01:10;100687.91;;;24.08;50.80
23427;BME280;41148;45.420;10.952;2023-05-07T12:03:39;100680.31;;;24.23;49.78
23427;BME280;41148;45.420;10.952;2023-05-07T12:06:10;100682.28;;;24.21;51.15
23427;BME280;41148;45.420;10.952;2023-05-07T12:08:40;100679.47;;;24.22;50.36
23427;BME280;41148;45.420;10.952;2023-05-07T12:11:09;100681.03;;;24.25;50.67
23427;BME280;41148;45.420;10.952;2023-05-07T12:13:38;100679.31;;;24.24;51.09
23427;BME280;41148;45.420;10.952;2023-05-07T12:16:06;100684.63;;;24.25;50.75
23427;BME280;41148;45.420;10.952;2023-05-07T12:18:35;100681.56;;;24.19;49.92
23427;BME280;41148;45.420;10.952;2023-05-07T12:21:06;100689.59;;;24.20;50.38
23427;BME280;41148;45.420;10.952;2023-05-07T12:23:35;100692.81;;;24.25;50.44
23427;BME280;41148;45.420;10.952;2023-05-07T12:26:03;100690.81;;;24.27;50.01
23427;BME280;41148;45.420;10.952;2023-05-07T12:28:38;100684.22;;;24.30;50.11
23427;BME280;41148;45.420;10.952;2023-05-07T12:31:06;100678.19;;;24.26;50.07
23427;BME280;41148;45.420;10.952;2023-05-07T12:33:35;100686.72;;;24.22;49.61
23427;BME280;41148;45.420;10.952;2023-05-07T12:36:05;100682.03;;;24.24;49.66
23427;BME280;41148;45.420;10.952;2023-05-07T12:38:39;100690.47;;;24.32;49.13
23427;BME280;41148;45.420;10.952;2023-05-07T12:41:10;100686.09;;;24.30;48.10
23427;BME280;41148;45.420;10.952;2023-05-07T12:43:38;100679.91;;;24.27;48.53
23427;BME280;41148;45.420;10.952;2023-05-07T12:46:07;100677.13;;;24.18;48.40
23427;BME280;41148;45.420;10.952;2023-05-07T12:48:37;100678.19;;;24.26;49.21
23427;BME280;41148;45.420;10.952;2023-05-07T12:51:05;100671.59;;;24.29;49.00
23427;BME280;41148;45.420;10.952;2023-05-07T12:53:33;100663.69;;;24.37;47.88
23427;BME280;41148;45.420;10.952;2023-05-07T12:56:00;100672.19;;;24.44;46.55
23427;BME280;41148;45.420;10.952;2023-05-07T12:58:30;100663.31;;;24.31;46.93
23427;BME280;41148;45.420;10.952;2023-05-07T13:00:59;100660.97;;;24.37;45.83
23427;BME280;41148;45.420;10.952;2023-05-07T13:03:32;100673.34;;;24.30;46.30
23427;BME280;41148;45.420;10.952;2023-05-07T13:06:05;100666.72;;;24.23;46.85
23427;BME280;41148;45.420;10.952;2023-05-07T13:08:35;100654.75;;;24.14;47.32